createdAt,value
2019-04-07T00:03:40.050Z,17.23
2019-04-07T00:08:41.394Z,15.23
2019-04-07T00:13:42.495Z,15.40
2019-04-07T00:18:43.598Z,14.83
2019-04-07T00:23:44.710Z,16.00
2019-04-07T00:28:46.288Z,14.40
2019-04-07T00:33:47.500Z,14.33
2019-04-07T00:38:48.930Z,13.10
2019-04-07T00:43:50.602Z,14.93
2019-04-07T00:48:51.778Z,13.70
2019-04-07T00:53:53.060Z,15.23
2019-04-07T00:58:54.557Z,14.83
2019-04-07T01:03:55.732Z,14.13
2019-04-07T01:08:56.919Z,13.43
2019-04-07T01:13:58.192Z,13.93
2019-04-07T01:18:59.385Z,14.90
2019-04-07T01:24:00.661Z,14.57
2019-04-07T01:29:02.993Z,17.10
2019-04-07T01:34:04.377Z,14.87
2019-04-07T01:39:07.880Z,14.63
2019-04-07T01:44:11.296Z,19.10
2019-04-07T01:49:32.487Z,18.20
2019-04-07T01:54:48.191Z,20.27
2019-04-07T01:59:51.950Z,20.53
2019-04-07T02:04:58.073Z,21.73
2019-04-07T02:10:07.246Z,18.87
2019-04-07T02:15:16.412Z,24.43
2019-04-07T02:20:41.268Z,30.67
2019-04-07T02:25:44.742Z,29.93
2019-04-07T02:31:00.693Z,25.47
2019-04-07T02:36:25.887Z,27.13
2019-04-07T02:41:40.103Z,20.43
2019-04-07T02:47:00.792Z,23.93
2019-04-07T02:52:12.989Z,20.43
2019-04-07T02:57:26.117Z,23.33
2019-04-07T03:02:30.466Z,21.90
2019-04-07T03:07:44.448Z,22.90
2019-04-07T03:12:54.099Z,19.97
2019-04-07T03:18:03.240Z,18.33
2019-04-07T03:23:07.236Z,14.43
2019-04-07T03:28:14.063Z,13.37
2019-04-07T03:33:21.206Z,12.50
2019-04-07T03:38:22.372Z,9.90
2019-04-07T03:43:34.693Z,10.07
2019-04-07T03:48:38.150Z,11.20
2019-04-07T03:53:47.511Z,9.67
2019-04-07T03:58:53.832Z,10.77
2019-04-07T04:03:56.977Z,8.23
2019-04-07T04:09:13.876Z,9.80
2019-04-07T04:14:33.347Z,11.27
2019-04-07T04:19:34.896Z,12.20
2019-04-07T04:24:36.789Z,10.23
2019-04-07T04:29:37.963Z,11.23
2019-04-07T04:34:39.084Z,10.47
2019-04-07T04:39:41.039Z,8.40
2019-04-07T04:44:44.187Z,9.30
2019-04-07T04:49:45.353Z,8.07
2019-04-07T04:54:47.376Z,11.37
2019-04-07T04:59:48.635Z,9.10
2019-04-07T05:04:49.800Z,8.33
2019-04-07T05:09:53.928Z,8.37
2019-04-07T05:14:53.911Z,8.67
2019-04-07T05:19:55.028Z,12.50
2019-04-07T05:24:56.676Z,11.43
2019-04-07T05:29:57.907Z,7.90
2019-04-07T05:34:59.000Z,7.27
2019-04-07T05:40:02.658Z,9.60
2019-04-07T05:45:05.151Z,8.53
2019-04-07T05:50:06.795Z,17.17
2019-04-07T05:55:08.939Z,17.43
2019-04-07T06:00:15.662Z,18.67
2019-04-07T06:05:16.230Z,12.27
2019-04-07T06:10:18.365Z,7.87
2019-04-07T06:15:22.194Z,9.43
2019-04-07T06:20:23.576Z,7.70
2019-04-07T06:25:25.104Z,11.13
2019-04-07T06:30:28.794Z,18.97
2019-04-07T06:35:29.776Z,21.03
2019-04-07T06:40:32.169Z,20.93
2019-04-07T06:45:38.665Z,21.47
2019-04-07T06:50:53.101Z,21.43
2019-04-07T06:55:52.754Z,22.40
2019-04-07T07:01:11.110Z,19.70
2019-04-07T07:06:18.428Z,20.87
2019-04-07T07:11:30.891Z,24.67
2019-04-07T07:16:32.242Z,23.27
2019-04-07T07:21:38.748Z,24.53
2019-04-07T07:26:38.581Z,24.07
2019-04-07T07:31:40.327Z,21.57
2019-04-07T07:36:41.763Z,20.07
2019-04-07T07:41:43.425Z,24.27
2019-04-07T07:46:44.559Z,21.83
2019-04-07T07:51:48.424Z,20.33
2019-04-07T07:56:51.152Z,19.10
2019-04-07T08:01:52.552Z,19.23
2019-04-07T08:06:54.472Z,19.67
2019-04-07T08:11:55.675Z,20.13
2019-04-07T08:17:00.205Z,17.50
2019-04-07T08:22:00.597Z,17.67
2019-04-07T08:27:01.843Z,17.23
2019-04-07T08:32:03.288Z,16.40
2019-04-07T08:37:04.812Z,14.53
2019-04-07T08:42:09.734Z,11.83
2019-04-07T08:47:12.367Z,12.83
2019-04-07T08:52:12.788Z,12.90
2019-04-07T08:57:14.116Z,14.17
2019-04-07T09:02:15.371Z,10.33
2019-04-07T09:07:16.508Z,10.17
2019-04-07T09:12:17.804Z,9.90
2019-04-07T09:17:40.082Z,9.97
2019-04-07T09:22:37.987Z,9.50
2019-04-07T09:27:48.570Z,9.60
2019-04-07T09:32:55.808Z,11.03
2019-04-07T09:38:15.573Z,10.17
2019-04-07T09:43:30.311Z,11.37
2019-04-07T09:48:35.465Z,11.23
2019-04-07T09:53:50.851Z,11.57
2019-04-07T09:58:54.586Z,8.87
2019-04-07T10:03:57.745Z,9.23
2019-04-07T10:09:04.128Z,9.33
2019-04-07T10:14:07.917Z,11.73
2019-04-07T10:19:16.951Z,9.73
2019-04-07T10:24:19.991Z,6.33
2019-04-07T10:29:39.929Z,7.43
2019-04-07T10:35:01.126Z,5.37
2019-04-07T10:40:16.689Z,5.60
2019-04-07T10:45:13.888Z,4.57
2019-04-07T10:50:33.680Z,3.53
2019-04-07T10:55:40.572Z,4.53
2019-04-07T11:00:55.843Z,3.93
2019-04-07T11:06:01.644Z,3.63
2019-04-07T11:11:13.453Z,3.63
2019-04-07T11:16:17.284Z,3.83
2019-04-07T11:21:26.578Z,3.43
2019-04-07T11:26:46.406Z,3.67
2019-04-07T11:31:50.438Z,3.30
2019-04-07T11:36:57.059Z,2.53
2019-04-07T11:42:09.561Z,3.23
2019-04-07T11:47:29.856Z,3.80
2019-04-07T11:52:33.190Z,2.90
2019-04-07T11:57:41.121Z,2.90
2019-04-07T12:02:54.881Z,2.70
2019-04-07T12:08:15.200Z,2.30
2019-04-07T12:13:31.304Z,2.57
2019-04-07T12:18:44.080Z,1.90
2019-04-07T12:23:52.775Z,2.57
2019-04-07T12:29:12.403Z,2.83
2019-04-07T12:34:34.382Z,3.23
2019-04-07T12:39:48.777Z,2.97
2019-04-07T12:44:55.478Z,2.67
2019-04-07T12:50:02.054Z,2.70
2019-04-07T12:55:13.714Z,2.70
2019-04-07T13:00:19.149Z,3.33
2019-04-07T13:05:29.772Z,2.97
2019-04-07T13:10:34.315Z,3.53
2019-04-07T13:15:47.499Z,3.40
2019-04-07T13:20:50.402Z,3.43
2019-04-07T13:26:10.607Z,5.73
2019-04-07T13:31:19.373Z,6.77
2019-04-07T13:36:37.749Z,3.73
2019-04-07T13:41:57.829Z,3.90
2019-04-07T13:47:10.676Z,4.50
2019-04-07T13:52:17.966Z,4.10
2019-04-07T13:57:22.197Z,4.07
2019-04-07T14:02:26.414Z,3.97
2019-04-07T14:07:40.947Z,4.03
2019-04-07T14:12:50.573Z,3.50
2019-04-07T14:18:10.284Z,3.63
2019-04-07T14:23:13.296Z,3.33
2019-04-07T14:28:25.604Z,5.83
2019-04-07T14:33:46.951Z,4.87
2019-04-07T14:38:50.751Z,3.67
2019-04-07T14:43:53.956Z,3.50
2019-04-07T14:49:15.939Z,4.00
2019-04-07T14:54:22.528Z,4.23
2019-04-07T14:59:42.777Z,4.50
2019-04-07T15:04:46.651Z,6.23
2019-04-07T15:09:59.801Z,5.50
2019-04-07T15:15:04.790Z,4.13
2019-04-07T15:20:07.465Z,3.60
2019-04-07T15:25:10.295Z,5.20
2019-04-07T15:30:15.387Z,5.57
2019-04-07T15:35:16.450Z,3.90
2019-04-07T15:40:18.151Z,4.07
2019-04-07T15:45:20.489Z,4.13
2019-04-07T15:50:22.666Z,11.87
2019-04-07T15:55:31.328Z,9.30
2019-04-07T16:00:28.246Z,3.70
2019-04-07T16:05:30.067Z,3.53
2019-04-07T16:10:33.665Z,4.73
2019-04-07T16:15:35.067Z,3.57
2019-04-07T16:20:40.068Z,3.63
2019-04-07T16:25:40.447Z,3.77
2019-04-07T16:30:42.812Z,6.30
2019-04-07T16:35:49.054Z,8.77
2019-04-07T16:40:47.942Z,5.63
2019-04-07T16:45:49.280Z,6.27
2019-04-07T16:50:53.277Z,8.67
2019-04-07T16:55:55.640Z,6.40
2019-04-07T17:00:57.893Z,12.87
2019-04-07T17:06:01.475Z,9.57
2019-04-07T17:11:07.016Z,7.13
2019-04-07T17:16:05.882Z,10.60
2019-04-07T17:21:12.617Z,20.20
2019-04-07T17:26:13.845Z,21.77
2019-04-07T17:31:15.329Z,11.13
2019-04-07T17:36:20.164Z,10.73
2019-04-07T17:41:20.187Z,24.13
2019-04-07T17:46:40.667Z,19.13
2019-04-07T17:51:56.374Z,8.43
2019-04-07T17:57:04.427Z,5.93
2019-04-07T18:02:10.719Z,11.47
2019-04-07T18:07:17.546Z,6.07
2019-04-07T18:12:29.549Z,6.93
2019-04-07T18:17:49.974Z,7.73
2019-04-07T18:22:58.952Z,13.00
2019-04-07T18:28:08.761Z,8.87
2019-04-07T18:33:15.607Z,8.13
2019-04-07T18:38:17.335Z,7.43
2019-04-07T18:43:21.402Z,9.03
2019-04-07T18:48:42.274Z,7.10
2019-04-07T18:53:51.965Z,12.43
2019-04-07T18:59:02.152Z,11.97
2019-04-07T19:04:17.038Z,8.67
2019-04-07T19:09:25.909Z,9.47
2019-04-07T19:14:52.098Z,9.63
2019-04-07T19:19:59.439Z,7.17
2019-04-07T19:25:10.886Z,9.63
2019-04-07T19:30:26.847Z,13.83
2019-04-07T19:35:45.632Z,10.77
2019-04-07T19:40:52.017Z,12.30
2019-04-07T19:46:04.807Z,11.10
2019-04-07T19:51:20.640Z,14.50
2019-04-07T19:56:40.248Z,13.00
2019-04-07T20:02:01.032Z,12.87
2019-04-07T20:07:20.237Z,12.90
2019-04-07T20:12:23.529Z,12.60
2019-04-07T20:17:32.617Z,11.20
2019-04-07T20:22:44.444Z,10.47
2019-04-07T20:27:51.243Z,9.97
2019-04-07T20:32:56.849Z,10.07
2019-04-07T20:38:02.051Z,11.33
2019-04-07T20:43:23.414Z,11.53
2019-04-07T20:48:25.744Z,11.97
2019-04-07T20:53:45.097Z,12.47
2019-04-07T20:58:58.625Z,17.83
2019-04-07T21:03:58.722Z,15.60
2019-04-07T21:09:11.196Z,15.07
2019-04-07T21:14:23.969Z,12.40
2019-04-07T21:19:30.111Z,12.03
2019-04-07T21:24:51.734Z,12.40
2019-04-07T21:29:57.994Z,12.90
2019-04-07T21:35:17.755Z,11.07
2019-04-07T21:40:20.976Z,8.77
2019-04-07T21:45:35.408Z,9.37
2019-04-07T21:50:46.020Z,9.03
2019-04-07T21:55:55.346Z,10.47
2019-04-07T22:01:05.237Z,9.03
2019-04-07T22:06:06.898Z,8.20
2019-04-07T22:11:09.206Z,6.80
2019-04-07T22:16:10.507Z,6.67
2019-04-07T22:21:11.758Z,5.80
2019-04-07T22:26:17.907Z,7.33
2019-04-07T22:31:17.958Z,5.33
2019-04-07T22:36:19.047Z,7.53
2019-04-07T22:41:20.139Z,5.10
2019-04-07T22:46:25.567Z,5.03
2019-04-07T22:51:25.036Z,5.00
2019-04-07T22:56:26.251Z,4.97
2019-04-07T23:01:27.440Z,4.67
2019-04-07T23:06:28.712Z,3.77
2019-04-07T23:11:30.017Z,4.37
2019-04-07T23:16:31.668Z,3.20
2019-04-07T23:21:32.914Z,3.60
2019-04-07T23:26:34.166Z,3.30
2019-04-07T23:31:36.319Z,3.10
2019-04-07T23:36:38.227Z,3.73
2019-04-07T23:41:39.483Z,3.37
2019-04-07T23:46:41.390Z,3.60
2019-04-07T23:51:43.464Z,2.67
2019-04-07T23:56:44.744Z,2.73
